Alcudia, Spain
Current Conditions -  °F | °C
As of 11:30 PM on Wednesday 22 Oct 2014 (Local Time) from LEPA Reporting Station
Scattered Clouds Scattered Clouds  
Wind Chill: 63°   Ceiling: Unl
Heat Index: 63°   Visibility: 6mi
Dew Point: 54°   Wind: 3mph
Humidity: 72%   Direction: 40°NE
Pressure: 30.24"   Gusts: NA
Location:  39.85°N, 3.12°E
Report Text: LEPA 222130Z 04003KT 9999 FEW024 SCT035 17/12 Q1024 NOSIG
Loading
Personal Weather Stations






























Interactive Weather Map
Tropical Storm Tracking
New forecast layout! Learn more

10-Day Weather Forecast

Advertisements
Track Severe Weather on mobile